Great Falls, MT

5:46 PM MDT on August 20, 2014 (GMT -0600)
Spicer's | Change Station
CLOSE
Current Station
Personal Weather Station
Location: Great Falls, MT
Elevation: 3323 ft
Nearby Weather Stations

Elev 3323 ft 47.51 °N, 111.32 °W | Updated 8 seconds ago

Mostly Cloudy
Mostly Cloudy
77.4 °F
Feels Like 78 °F
N
0.0
Wind Variable Wind from SW
Gusts 0.0 mph

Today
High -- | Low -- °F
--% Chance of Precip.
Yesterday
High -- | Low -- °F
Precip. -- in
6:27 AM 8:28 PM
Waning Crescent, 18% visible
Pressure 29.76 in
Visibility 10.0 miles
Clouds Few 8000 ft
Mostly Cloudy 10000 ft
Heat Index 78 °F
Dew Point 52 °F
Humidity 41%
Rainfall 0.03 in
Snow Depth Not available.
UV 2 out of 12
Pollen 7.60 out of 12
Air Quality Not available.
Flu Activity Not available.
METAR KGTF 202253Z 00000KT 10SM FEW080 BKN100 23/08 A2983 RMK AO2 SLP077 T02330083

More Conditions Fewer Conditions

Pressure 29.76 in
Visibility 10.0 miles
Clouds Few 8000 ft
Mostly Cloudy 10000 ft
Heat Index 78 °F
Dew Point 52 °F
Humidity 41%
Rainfall 0.03 in
Snow Depth Not available.
UV 2 out of 12
Pollen 7.60 out of 12
Air Quality Not available.
Flu Activity Not available.
METAR KGTF 202253Z 00000KT 10SM FEW080 BKN100 23/08 A2983 RMK AO2 SLP077 T02330083

More Conditions Fewer Conditions

10-Day Weather Forecast

Almanac

Astronomy

Aug. 20, 2014 Rise Set
Actual Time 6:27 AM MDT 8:28 PM MDT
Civil Twilight 5:54 AM MDT 9:01 PM MDT
Nautical Twilight 5:13 AM MDT 9:41 PM MDT
Astronomical Twilight 4:28 AM MDT 10:27 PM MDT
Moon 2:03 AM MDT 5:23 PM MDT
Length of Visible Light 15h 06m
Length of Day
14h 00m
Tomorrow will be 3m 10s shorter.
Waning Crescent, 18% of the Moon is Illuminated
Today
Waning Crescent
Aug 25
New
Sep 2
First Quarter
Sep 8
Full
Sep 15
Last Quarter

Today's Extremes

State Highs State Lows

Community

WunderPhotos

Upload Photos

1,745,801 photos uploaded!

Nearby

Snow Depth

Station Depth Elevation
Nevada Ridge 0 in 7020 ft
Waldron 1 in 5600 ft
Dupuyer Creek 0 in 5750 ft
Tizer Basin 1 in 6840 ft
Crystal Lake 0 in 6050 ft

Earthquake Activity

City Distance Mag. Time & Date
No recent earthquake activity has been reported nearby.
Minimum magnitude displayed is 2.5.

Coastal Water Temperatures

Place Temperature
No Stations Reporting

Nearby Weather Stations